createdAt,value
2018-01-29T00:01:23.793Z,26.07
2018-01-29T00:03:50.508Z,25.67
2018-01-29T00:06:17.214Z,25.33
2018-01-29T00:08:43.944Z,25.27
2018-01-29T00:11:10.665Z,25.30
2018-01-29T00:13:37.376Z,26.63
2018-01-29T00:16:04.094Z,27.47
2018-01-29T00:18:30.808Z,27.43
2018-01-29T00:20:57.555Z,25.27
2018-01-29T00:23:24.266Z,26.13
2018-01-29T00:25:50.985Z,26.60
2018-01-29T00:28:17.697Z,26.17
2018-01-29T00:30:44.408Z,27.67
2018-01-29T00:33:11.219Z,27.53
2018-01-29T00:35:37.942Z,26.77
2018-01-29T00:38:04.659Z,26.73
2018-01-29T00:40:31.363Z,26.50
2018-01-29T00:42:58.076Z,28.47
2018-01-29T00:45:24.799Z,27.00
2018-01-29T00:47:51.534Z,28.50
2018-01-29T00:50:18.302Z,29.77
2018-01-29T00:52:45.022Z,30.90
2018-01-29T00:55:11.737Z,30.53
2018-01-29T00:57:38.463Z,29.67
2018-01-29T01:00:05.190Z,27.67
2018-01-29T01:02:31.902Z,31.27
2018-01-29T01:04:58.609Z,27.93
2018-01-29T01:07:25.318Z,29.93
2018-01-29T01:09:52.053Z,29.77
2018-01-29T01:12:18.753Z,29.80
2018-01-29T01:14:45.469Z,28.40
2018-01-29T01:17:12.205Z,27.80
2018-01-29T01:19:38.924Z,29.30
2018-01-29T01:22:05.640Z,27.07
2018-01-29T01:24:32.377Z,26.77
2018-01-29T01:26:59.097Z,27.03
2018-01-29T01:29:25.910Z,25.70
2018-01-29T01:31:52.638Z,26.50
2018-01-29T01:34:19.358Z,24.20
2018-01-29T01:36:46.084Z,23.80
2018-01-29T01:39:12.797Z,26.00
2018-01-29T01:41:39.516Z,27.60
2018-01-29T01:44:06.227Z,28.60
2018-01-29T01:46:32.938Z,29.90
2018-01-29T01:48:59.652Z,27.33
2018-01-29T01:51:26.397Z,29.67
2018-01-29T01:53:53.114Z,28.83
2018-01-29T01:56:19.820Z,31.10
2018-01-29T01:58:46.527Z,29.43
2018-01-29T02:01:13.274Z,29.87
2018-01-29T02:03:40.013Z,26.00
2018-01-29T02:06:06.743Z,27.80
2018-01-29T02:08:33.470Z,28.57
2018-01-29T02:11:00.186Z,29.10
2018-01-29T02:13:26.899Z,30.90
2018-01-29T02:15:53.614Z,26.97
2018-01-29T02:18:20.355Z,28.03
2018-01-29T02:20:47.065Z,28.27
2018-01-29T02:23:13.774Z,28.60
2018-01-29T02:25:40.484Z,27.03
2018-01-29T02:28:07.189Z,26.37
2018-01-29T02:30:33.922Z,28.37
2018-01-29T02:33:00.648Z,28.13
2018-01-29T02:35:27.369Z,26.03
2018-01-29T02:37:54.083Z,27.03
2018-01-29T02:40:20.809Z,28.70
2018-01-29T02:42:47.583Z,28.52
2018-01-29T02:45:14.299Z,29.00
2018-01-29T02:47:41.026Z,29.63
2018-01-29T02:50:07.784Z,26.50
2018-01-29T02:52:34.517Z,27.70
2018-01-29T02:55:01.255Z,26.30
2018-01-29T02:57:28.001Z,26.40
2018-01-29T02:59:54.757Z,26.60
2018-01-29T03:02:21.469Z,28.40
2018-01-29T03:04:48.204Z,25.83
2018-01-29T03:07:14.938Z,25.62
2018-01-29T03:09:41.685Z,25.92
2018-01-29T03:12:08.415Z,25.85
2018-01-29T03:14:35.153Z,24.17
2018-01-29T03:17:01.861Z,26.77
2018-01-29T03:19:28.588Z,25.65
2018-01-29T03:21:55.329Z,25.80
2018-01-29T03:24:22.045Z,24.75
2018-01-29T03:26:48.765Z,23.38
2018-01-29T03:29:15.516Z,24.10
2018-01-29T03:31:42.233Z,25.40
2018-01-29T03:34:08.955Z,25.40
2018-01-29T03:36:35.718Z,26.23
2018-01-29T03:39:02.452Z,23.45
2018-01-29T03:41:29.177Z,26.10
2018-01-29T03:43:55.935Z,25.73
2018-01-29T03:46:22.654Z,26.45
2018-01-29T03:48:49.393Z,25.45
2018-01-29T03:51:16.125Z,24.77
2018-01-29T03:53:42.845Z,25.80
2018-01-29T03:56:09.565Z,24.52
2018-01-29T03:58:36.376Z,22.33
2018-01-29T04:01:03.164Z,23.12
2018-01-29T04:03:29.889Z,24.05
2018-01-29T04:05:56.613Z,23.65
2018-01-29T04:08:23.349Z,23.05
2018-01-29T04:10:50.074Z,26.45
2018-01-29T04:13:16.801Z,23.02
2018-01-29T04:15:43.526Z,24.83
2018-01-29T04:18:10.239Z,41.83
2018-01-29T04:20:36.978Z,39.70
2018-01-29T04:23:03.694Z,40.67
2018-01-29T04:25:30.425Z,28.55
2018-01-29T04:27:57.171Z,25.98
2018-01-29T04:30:23.892Z,42.15
2018-01-29T04:32:50.619Z,34.05
2018-01-29T04:35:17.495Z,39.72
2018-01-29T04:37:44.244Z,32.42
2018-01-29T04:40:10.977Z,31.60
2018-01-29T04:42:37.701Z,39.88
2018-01-29T04:45:04.452Z,37.90
2018-01-29T04:47:31.175Z,31.20
2018-01-29T04:49:59.165Z,29.48
2018-01-29T04:52:25.899Z,29.92
2018-01-29T04:54:52.621Z,34.58
2018-01-29T04:57:19.350Z,34.00
2018-01-29T04:59:46.070Z,26.27
2018-01-29T05:02:12.807Z,28.58
2018-01-29T05:04:39.544Z,31.67
2018-01-29T05:07:06.278Z,34.22
2018-01-29T05:09:33.017Z,37.22
2018-01-29T05:11:59.732Z,27.13
2018-01-29T05:14:26.466Z,27.67
2018-01-29T05:16:53.226Z,36.00
2018-01-29T05:19:19.962Z,33.30
2018-01-29T05:21:46.718Z,27.87
2018-01-29T05:24:13.460Z,33.35
2018-01-29T05:26:40.182Z,33.88
2018-01-29T05:29:06.904Z,29.80
2018-01-29T05:31:33.632Z,26.75
2018-01-29T05:34:00.400Z,26.70
2018-01-29T05:36:33.007Z,29.77
2018-01-29T05:38:59.767Z,30.77
2018-01-29T05:41:26.554Z,26.80
2018-01-29T05:43:53.402Z,29.90
2018-01-29T05:46:20.121Z,28.57
2018-01-29T05:48:46.899Z,29.48
2018-01-29T05:51:13.661Z,26.83
2018-01-29T05:53:40.434Z,24.08
2018-01-29T05:56:07.310Z,23.67
2018-01-29T05:58:34.042Z,40.15
2018-01-29T06:01:00.778Z,38.58
2018-01-29T06:03:27.507Z,23.55
2018-01-29T06:05:54.236Z,19.98
2018-01-29T06:08:20.985Z,22.60
2018-01-29T06:10:47.720Z,20.90
2018-01-29T06:13:14.546Z,20.62
2018-01-29T06:15:41.314Z,21.00
2018-01-29T06:18:08.075Z,20.88
2018-01-29T06:20:34.920Z,21.42
2018-01-29T06:23:01.734Z,21.98
2018-01-29T06:25:28.471Z,20.15
2018-01-29T06:27:55.249Z,21.80
2018-01-29T06:30:21.978Z,22.98
2018-01-29T06:32:48.729Z,20.25
2018-01-29T06:35:15.467Z,18.98
2018-01-29T06:37:42.311Z,18.42
2018-01-29T06:40:09.125Z,19.73
2018-01-29T06:42:35.860Z,21.58
2018-01-29T06:45:02.617Z,20.35
2018-01-29T06:47:29.426Z,20.05
2018-01-29T06:49:56.187Z,18.52
2018-01-29T06:52:22.934Z,19.35
2018-01-29T06:54:49.677Z,18.12
2018-01-29T06:57:16.406Z,19.10
2018-01-29T06:59:43.131Z,18.13
2018-01-29T07:02:09.894Z,19.70
2018-01-29T07:04:36.643Z,19.60
2018-01-29T07:07:03.397Z,19.80
2018-01-29T07:09:30.126Z,23.03
2018-01-29T07:11:56.864Z,25.47
2018-01-29T07:14:23.613Z,24.40
2018-01-29T07:16:50.347Z,20.87
2018-01-29T07:19:17.104Z,23.80
2018-01-29T07:21:43.827Z,21.17
2018-01-29T07:24:10.545Z,21.73
2018-01-29T07:26:37.278Z,20.57
2018-01-29T07:29:04.074Z,20.37
2018-01-29T07:31:30.893Z,22.03
2018-01-29T07:33:57.625Z,20.70
2018-01-29T07:36:24.361Z,21.30
2018-01-29T07:38:51.131Z,24.20
2018-01-29T07:41:17.876Z,25.60
2018-01-29T07:43:44.651Z,25.00
2018-01-29T07:46:11.404Z,27.73
2018-01-29T07:48:38.132Z,28.33
2018-01-29T07:51:04.874Z,28.07
2018-01-29T07:53:31.610Z,28.83
2018-01-29T07:55:58.362Z,31.10
2018-01-29T07:58:25.096Z,32.97
2018-01-29T08:00:51.867Z,29.67
2018-01-29T08:03:18.615Z,30.80
2018-01-29T08:05:45.369Z,29.67
2018-01-29T08:08:12.381Z,32.47
2018-01-29T08:10:39.177Z,32.07
2018-01-29T08:13:05.902Z,33.70
2018-01-29T08:15:32.630Z,33.27
2018-01-29T08:17:59.388Z,34.10
2018-01-29T08:20:26.106Z,32.47
2018-01-29T08:22:52.891Z,32.20
2018-01-29T08:25:19.627Z,33.23
2018-01-29T08:27:46.390Z,31.43
2018-01-29T08:30:13.137Z,25.80
2018-01-29T08:32:39.864Z,24.77
2018-01-29T08:35:06.615Z,27.20
2018-01-29T08:37:33.379Z,24.67
2018-01-29T08:40:00.105Z,26.50
2018-01-29T08:42:26.845Z,25.27
2018-01-29T08:44:53.610Z,26.40
2018-01-29T08:47:20.373Z,25.80
2018-01-29T08:49:47.116Z,26.37
2018-01-29T08:52:13.867Z,24.10
2018-01-29T08:54:40.608Z,25.13
2018-01-29T08:57:07.392Z,23.90
2018-01-29T08:59:34.114Z,21.77
2018-01-29T09:02:00.878Z,21.57
2018-01-29T09:04:27.636Z,23.03
2018-01-29T09:06:54.367Z,23.03
2018-01-29T09:09:21.126Z,23.43
2018-01-29T09:11:47.876Z,23.60
2018-01-29T09:14:14.605Z,23.63
2018-01-29T09:16:41.368Z,22.93
2018-01-29T09:19:08.135Z,21.60
2018-01-29T09:21:46.142Z,22.77
2018-01-29T09:27:05.958Z,25.40
2018-01-29T09:29:32.698Z,26.93
2018-01-29T09:31:59.439Z,26.50
2018-01-29T09:34:26.177Z,28.93
2018-01-29T09:36:52.939Z,25.73
2018-01-29T09:39:19.676Z,27.90
2018-01-29T09:41:46.410Z,25.70
2018-01-29T09:44:13.199Z,26.17
2018-01-29T09:46:40.057Z,24.20
2018-01-29T09:49:06.902Z,23.77
2018-01-29T09:51:33.642Z,21.90
2018-01-29T09:54:00.426Z,20.03
2018-01-29T09:56:27.151Z,22.03
2018-01-29T09:58:53.878Z,23.50
2018-01-29T10:01:20.603Z,21.77
2018-01-29T10:03:47.359Z,21.30
2018-01-29T10:06:14.508Z,21.50
2018-01-29T10:08:41.308Z,22.93
2018-01-29T10:11:08.043Z,22.40
2018-01-29T10:13:34.832Z,23.40
2018-01-29T10:16:01.575Z,22.50
2018-01-29T10:18:28.308Z,20.60
2018-01-29T10:20:55.077Z,23.50
2018-01-29T10:23:21.897Z,22.83
2018-01-29T10:25:48.661Z,22.67
2018-01-29T10:28:15.505Z,23.70
2018-01-29T10:30:42.228Z,23.03
2018-01-29T10:33:09.072Z,23.87
2018-01-29T10:35:35.798Z,21.70
2018-01-29T10:38:02.589Z,20.63
2018-01-29T10:40:29.316Z,18.00
2018-01-29T10:42:56.121Z,17.77
2018-01-29T10:45:22.874Z,16.50
2018-01-29T10:47:49.600Z,16.67
2018-01-29T10:50:16.332Z,15.93
2018-01-29T10:52:43.084Z,17.30
2018-01-29T10:55:09.822Z,15.50
2018-01-29T10:57:36.616Z,17.23
2018-01-29T11:00:03.407Z,18.37
2018-01-29T11:02:30.126Z,17.80
2018-01-29T11:04:56.842Z,16.20
2018-01-29T11:07:23.589Z,16.87
2018-01-29T11:09:50.342Z,16.90
2018-01-29T11:12:17.167Z,14.90
2018-01-29T11:14:43.888Z,15.77
2018-01-29T11:17:10.607Z,17.40
2018-01-29T11:19:37.333Z,15.70
2018-01-29T11:22:04.156Z,15.00
2018-01-29T11:24:30.880Z,14.50
2018-01-29T11:26:57.598Z,14.60
2018-01-29T11:29:24.335Z,14.57
2018-01-29T11:31:51.051Z,15.40
2018-01-29T11:34:17.805Z,14.27
2018-01-29T11:36:44.599Z,14.40
2018-01-29T11:39:11.322Z,15.10
2018-01-29T11:41:38.096Z,14.00
2018-01-29T11:44:04.834Z,15.43
2018-01-29T11:46:31.689Z,13.30
2018-01-29T11:48:58.462Z,14.27
2018-01-29T11:51:25.178Z,14.97
2018-01-29T11:53:51.890Z,13.47
2018-01-29T11:56:18.682Z,15.00
2018-01-29T11:58:45.437Z,14.13
2018-01-29T12:01:12.182Z,12.63
2018-01-29T12:03:38.950Z,12.33
2018-01-29T12:06:06.464Z,13.73
2018-01-29T12:08:33.229Z,13.90
2018-01-29T12:10:59.981Z,14.20
2018-01-29T12:13:26.722Z,16.60
2018-01-29T12:15:53.457Z,13.90
2018-01-29T12:18:20.208Z,15.33
2018-01-29T12:20:46.989Z,15.20
2018-01-29T12:23:13.727Z,16.47
2018-01-29T12:25:40.444Z,15.97
2018-01-29T12:28:07.177Z,16.20
2018-01-29T12:30:33.909Z,16.17
2018-01-29T12:33:00.659Z,15.83
2018-01-29T12:35:27.424Z,15.40
2018-01-29T12:37:54.269Z,15.40
2018-01-29T12:40:21.051Z,15.27
2018-01-29T12:42:47.781Z,14.83
2018-01-29T12:45:14.534Z,15.20
2018-01-29T12:47:41.261Z,14.53
2018-01-29T12:50:08.115Z,15.63
2018-01-29T12:52:34.847Z,16.17
2018-01-29T12:55:01.606Z,15.37
2018-01-29T12:57:28.320Z,14.70
2018-01-29T12:59:55.033Z,14.60
2018-01-29T13:02:21.831Z,15.27
2018-01-29T13:04:48.577Z,15.57
2018-01-29T13:07:15.321Z,15.30
2018-01-29T13:09:42.033Z,14.80
2018-01-29T13:12:08.757Z,13.80
2018-01-29T13:14:35.469Z,15.17
2018-01-29T13:17:02.201Z,13.80
2018-01-29T13:19:28.946Z,13.00
2018-01-29T13:21:55.657Z,13.43
2018-01-29T13:24:22.405Z,13.63
2018-01-29T13:26:49.156Z,11.40
2018-01-29T13:29:15.898Z,12.40
2018-01-29T13:31:42.622Z,12.20
2018-01-29T13:34:09.342Z,11.77
2018-01-29T13:36:36.059Z,11.03
2018-01-29T13:39:02.866Z,10.10
2018-01-29T13:41:29.646Z,9.27
2018-01-29T13:43:56.374Z,10.40
2018-01-29T13:46:23.090Z,8.77
2018-01-29T13:48:49.828Z,11.40
2018-01-29T13:51:16.566Z,9.77
2018-01-29T13:53:43.272Z,9.97
2018-01-29T13:56:09.999Z,11.20
2018-01-29T13:58:36.744Z,10.10
2018-01-29T14:01:03.554Z,10.97
2018-01-29T14:03:30.284Z,10.53
2018-01-29T14:05:57.025Z,12.10
2018-01-29T14:08:23.879Z,11.10
2018-01-29T14:10:50.613Z,10.47
2018-01-29T14:13:17.327Z,9.23
2018-01-29T14:15:44.055Z,10.60
2018-01-29T14:18:10.810Z,10.80
2018-01-29T14:20:37.587Z,9.63
2018-01-29T14:23:04.342Z,8.73
2018-01-29T14:25:31.062Z,8.77
2018-01-29T14:27:57.809Z,9.67
2018-01-29T14:30:24.581Z,10.60
2018-01-29T14:32:51.305Z,11.57
2018-01-29T14:35:18.020Z,8.53
2018-01-29T14:37:44.773Z,8.80
2018-01-29T14:40:11.520Z,9.63
2018-01-29T14:42:38.283Z,11.10
2018-01-29T14:45:05.148Z,8.63
2018-01-29T14:47:31.870Z,8.50
2018-01-29T14:49:58.613Z,10.40
2018-01-29T14:52:25.438Z,9.47
2018-01-29T14:54:52.165Z,9.40
2018-01-29T14:57:18.929Z,8.83
2018-01-29T14:59:45.651Z,8.23
2018-01-29T15:02:12.374Z,8.47
2018-01-29T15:04:39.130Z,8.60
2018-01-29T15:07:05.919Z,8.70
2018-01-29T15:09:32.677Z,8.73
2018-01-29T15:11:59.415Z,8.57
2018-01-29T15:14:26.154Z,9.17
2018-01-29T15:16:52.930Z,9.30
2018-01-29T15:19:19.682Z,7.40
2018-01-29T15:21:46.386Z,9.67
2018-01-29T15:24:13.150Z,8.93
2018-01-29T15:26:39.895Z,7.63
2018-01-29T15:29:06.641Z,7.10
2018-01-29T15:31:33.393Z,8.97
2018-01-29T15:34:00.140Z,9.27
2018-01-29T15:36:26.878Z,8.57
2018-01-29T15:38:53.609Z,8.80
2018-01-29T15:41:20.395Z,6.87
2018-01-29T15:43:47.125Z,8.10
2018-01-29T15:46:13.856Z,7.93
2018-01-29T15:48:40.578Z,8.50
2018-01-29T15:51:07.291Z,7.80
2018-01-29T15:53:34.021Z,10.33
2018-01-29T15:56:00.757Z,8.80
2018-01-29T15:58:27.485Z,9.73
2018-01-29T16:00:54.197Z,7.37
2018-01-29T16:03:20.926Z,7.20
2018-01-29T16:05:47.649Z,10.40
2018-01-29T16:08:14.368Z,9.60
2018-01-29T16:10:41.103Z,14.37
2018-01-29T16:13:07.822Z,11.60
2018-01-29T16:15:34.559Z,12.50
2018-01-29T16:18:01.337Z,12.60
2018-01-29T16:20:28.075Z,13.53
2018-01-29T16:22:54.802Z,16.50
2018-01-29T16:25:21.512Z,19.90
2018-01-29T16:27:48.237Z,22.23
2018-01-29T16:30:15.023Z,18.83
2018-01-29T16:32:41.751Z,14.23
2018-01-29T16:35:08.480Z,11.80
2018-01-29T16:37:35.216Z,9.63
2018-01-29T16:40:01.939Z,8.80
2018-01-29T16:42:28.662Z,8.93
2018-01-29T16:44:55.397Z,8.80
2018-01-29T16:47:22.105Z,9.50
2018-01-29T16:49:48.800Z,7.30
2018-01-29T16:52:15.519Z,8.40
2018-01-29T16:54:42.253Z,9.30
2018-01-29T16:57:08.962Z,8.43
2018-01-29T16:59:35.693Z,7.80
2018-01-29T17:02:02.429Z,12.20
2018-01-29T17:04:29.153Z,23.50
2018-01-29T17:06:55.872Z,14.47
2018-01-29T17:09:22.596Z,17.70
2018-01-29T17:11:49.328Z,18.57
2018-01-29T17:14:16.042Z,18.30
2018-01-29T17:16:42.777Z,24.40
2018-01-29T17:19:09.525Z,17.50
2018-01-29T17:21:36.266Z,24.20
2018-01-29T17:24:03.055Z,21.57
2018-01-29T17:26:29.815Z,16.17
2018-01-29T17:28:56.654Z,14.00
2018-01-29T17:31:23.374Z,24.03
2018-01-29T17:33:50.212Z,31.70
2018-01-29T17:36:16.951Z,31.30
2018-01-29T17:38:43.685Z,26.20
2018-01-29T17:41:10.408Z,17.10
2018-01-29T17:43:37.168Z,11.07
2018-01-29T17:46:03.902Z,26.47
2018-01-29T17:48:32.631Z,22.90
2018-01-29T17:50:59.408Z,20.80
2018-01-29T17:53:26.113Z,19.17
2018-01-29T17:55:52.820Z,14.47
2018-01-29T17:58:19.545Z,12.27
2018-01-29T18:00:46.405Z,19.53
2018-01-29T18:03:13.115Z,22.03
2018-01-29T18:05:39.829Z,27.20
2018-01-29T18:08:11.825Z,15.50
2018-01-29T18:10:38.617Z,11.57
2018-01-29T18:13:05.346Z,10.80
2018-01-29T18:15:32.076Z,9.60
2018-01-29T18:17:58.810Z,8.20
2018-01-29T18:20:25.559Z,10.07
2018-01-29T18:22:52.287Z,8.07
2018-01-29T18:25:19.044Z,9.00
2018-01-29T18:27:45.758Z,8.77
2018-01-29T18:30:12.499Z,8.70
2018-01-29T18:32:39.256Z,8.43
2018-01-29T18:35:06.005Z,8.27
2018-01-29T18:37:32.737Z,11.23
2018-01-29T18:39:59.450Z,8.30
2018-01-29T18:42:26.186Z,9.20
2018-01-29T18:44:52.921Z,9.97
2018-01-29T18:47:19.636Z,8.30
2018-01-29T18:49:46.381Z,8.93
2018-01-29T18:52:13.137Z,8.27
2018-01-29T18:54:39.902Z,8.47
2018-01-29T18:57:06.636Z,7.90
2018-01-29T18:59:33.360Z,9.00
2018-01-29T19:02:00.128Z,8.47
2018-01-29T19:04:26.850Z,9.00
2018-01-29T19:06:53.588Z,8.03
2018-01-29T19:09:20.329Z,8.50
2018-01-29T19:11:47.076Z,8.63
2018-01-29T19:14:13.818Z,9.70
2018-01-29T19:16:40.561Z,7.80
2018-01-29T19:19:07.294Z,8.30
2018-01-29T19:21:34.016Z,8.73
2018-01-29T19:24:00.832Z,8.23
2018-01-29T19:26:27.545Z,7.30
2018-01-29T19:28:54.261Z,8.67
2018-01-29T19:31:21.017Z,8.37
2018-01-29T19:33:47.748Z,7.63
2018-01-29T19:36:14.465Z,6.53
2018-01-29T19:38:41.193Z,7.30
2018-01-29T19:41:07.929Z,7.60
2018-01-29T19:43:34.638Z,7.57
2018-01-29T19:46:01.456Z,7.30
2018-01-29T19:48:28.180Z,8.70
2018-01-29T19:50:54.915Z,7.73
2018-01-29T19:53:21.684Z,8.43
2018-01-29T19:55:48.413Z,8.20
2018-01-29T19:58:15.130Z,8.17
2018-01-29T20:00:41.858Z,8.80
2018-01-29T20:03:08.605Z,9.13
2018-01-29T20:05:35.325Z,8.07
2018-01-29T20:08:02.047Z,8.60
2018-01-29T20:10:28.783Z,8.43
2018-01-29T20:12:55.521Z,8.60
2018-01-29T20:15:22.268Z,8.20
2018-01-29T20:17:48.974Z,8.40
2018-01-29T20:20:15.713Z,8.47
2018-01-29T20:22:42.422Z,8.03
2018-01-29T20:25:09.141Z,8.33
2018-01-29T20:27:35.893Z,7.63
2018-01-29T20:30:02.621Z,8.30
2018-01-29T20:32:29.332Z,8.70
2018-01-29T20:34:56.070Z,7.80
2018-01-29T20:37:22.815Z,7.40
2018-01-29T20:39:49.546Z,8.47
2018-01-29T20:42:16.304Z,8.30
2018-01-29T20:44:43.056Z,8.03
2018-01-29T20:47:09.794Z,7.93
2018-01-29T20:49:36.514Z,8.30
2018-01-29T20:52:03.263Z,8.30
2018-01-29T20:54:29.986Z,7.83
2018-01-29T20:56:56.712Z,8.00
2018-01-29T20:59:23.421Z,9.17
2018-01-29T21:01:50.124Z,8.50
2018-01-29T21:04:16.849Z,7.60
2018-01-29T21:06:45.178Z,7.83
2018-01-29T21:09:11.886Z,7.90
2018-01-29T21:11:38.610Z,8.03
2018-01-29T21:14:05.358Z,9.63
2018-01-29T21:16:32.084Z,8.97
2018-01-29T21:18:58.807Z,9.93
2018-01-29T21:21:25.545Z,9.93
2018-01-29T21:23:52.249Z,8.43
2018-01-29T21:26:18.973Z,9.73
2018-01-29T21:28:45.722Z,9.87
2018-01-29T21:31:12.437Z,9.63
2018-01-29T21:33:39.165Z,8.10
2018-01-29T21:36:05.895Z,9.13
2018-01-29T21:38:32.620Z,9.00
2018-01-29T21:40:59.329Z,8.80
2018-01-29T21:43:26.133Z,9.93
2018-01-29T21:45:52.865Z,8.50
2018-01-29T21:48:19.594Z,10.70
2018-01-29T21:50:46.312Z,9.13
2018-01-29T21:53:13.034Z,8.93
2018-01-29T21:55:39.766Z,9.27
2018-01-29T21:58:06.517Z,7.87
2018-01-29T22:00:33.257Z,7.27
2018-01-29T22:02:59.987Z,6.53
2018-01-29T22:05:26.724Z,7.03
2018-01-29T22:07:53.487Z,9.63
2018-01-29T22:10:20.241Z,8.17
2018-01-29T22:12:46.962Z,7.57
2018-01-29T22:15:13.705Z,9.83
2018-01-29T22:17:40.414Z,8.80
2018-01-29T22:20:07.180Z,10.30
2018-01-29T22:22:33.922Z,8.83
2018-01-29T22:25:00.656Z,8.37
2018-01-29T22:27:27.400Z,8.60
2018-01-29T22:29:54.161Z,9.03
2018-01-29T22:32:20.981Z,8.40
2018-01-29T22:34:47.739Z,8.33
2018-01-29T22:37:14.543Z,8.27
2018-01-29T22:39:41.258Z,9.00
2018-01-29T22:42:08.011Z,8.97
2018-01-29T22:44:35.204Z,9.23
2018-01-29T22:47:01.942Z,8.37
2018-01-29T22:49:29.006Z,9.40
2018-01-29T22:51:55.902Z,10.20
2018-01-29T22:54:22.630Z,8.73
2018-01-29T22:56:49.474Z,8.97
2018-01-29T22:59:16.198Z,9.77
2018-01-29T23:01:42.930Z,9.50
2018-01-29T23:04:09.648Z,9.30
2018-01-29T23:06:36.376Z,9.70
2018-01-29T23:09:03.766Z,9.60
2018-01-29T23:11:30.553Z,10.27
2018-01-29T23:13:57.283Z,9.40
2018-01-29T23:16:24.034Z,10.03
2018-01-29T23:18:50.761Z,10.13
2018-01-29T23:21:17.478Z,9.67
2018-01-29T23:23:44.205Z,9.97
2018-01-29T23:26:10.924Z,10.87
2018-01-29T23:28:37.666Z,9.60
2018-01-29T23:31:04.392Z,9.83
2018-01-29T23:33:32.096Z,10.20
2018-01-29T23:35:58.902Z,10.63
2018-01-29T23:38:25.633Z,10.67
2018-01-29T23:40:52.365Z,11.47
2018-01-29T23:43:19.092Z,11.50
2018-01-29T23:45:45.841Z,10.80
2018-01-29T23:48:12.557Z,10.07
2018-01-29T23:50:39.354Z,12.07
2018-01-29T23:53:06.119Z,10.50
2018-01-29T23:55:32.837Z,11.30
2018-01-29T23:57:59.561Z,12.47
